WRC7736 LKTB-LUKK
Flight info
| Callsign | WRC7736 |
|---|---|
| Flight time | N/A |
| Altitude | 33000 |
| Route | N0450F330 UPLAV P27 MAKAL DCT UDREL DCT MALBE M991 IVF L986 INROG M860 ERADA |
| Aircraft | A319/M-G/L |
Departure
| Time | 2026-04-20 17:38 |
|---|---|
| Airport | Brno-Tuřany Airport (LKTB) |
Arrival
| Time | N/A |
|---|---|
| Airport | Chişinău International Airport (LUKK) |
| Time | Latitude | Longitude | Altitude | Speed | Heading |
|---|---|---|---|---|---|
| 2026-04-20 17:21 | 49.15397 | 16.68948 | 785 ft | 0 kts | 6° |
| 2026-04-20 17:32 | 49.15385 | 16.68946 | 785 ft | 2 kts | 6° |
| 2026-04-20 17:32 | 49.15373 | 16.68943 | 784 ft | 2 kts | 36° |
| 2026-04-20 17:32 | 49.15364 | 16.68926 | 784 ft | 2 kts | 72° |
| 2026-04-20 17:33 | 49.15362 | 16.68911 | 784 ft | 1 kts | 99° |
| 2026-04-20 17:33 | 49.15364 | 16.68902 | 784 ft | 0 kts | 98° |
| 2026-04-20 17:34 | 49.15363 | 16.68904 | 784 ft | 0 kts | 98° |
| 2026-04-20 17:34 | 49.15355 | 16.69000 | 784 ft | 14 kts | 97° |
| 2026-04-20 17:35 | 49.15342 | 16.69165 | 783 ft | 16 kts | 99° |
| 2026-04-20 17:35 | 49.15324 | 16.69354 | 779 ft | 19 kts | 97° |
| 2026-04-20 17:35 | 49.15309 | 16.69572 | 774 ft | 22 kts | 94° |
| 2026-04-20 17:35 | 49.15287 | 16.69808 | 769 ft | 22 kts | 98° |
| 2026-04-20 17:36 | 49.15265 | 16.70054 | 767 ft | 23 kts | 98° |
| 2026-04-20 17:36 | 49.15243 | 16.70312 | 765 ft | 24 kts | 98° |
| 2026-04-20 17:36 | 49.15221 | 16.70567 | 766 ft | 23 kts | 100° |
| 2026-04-20 17:36 | 49.15201 | 16.70808 | 769 ft | 21 kts | 96° |
| 2026-04-20 17:37 | 49.15190 | 16.71033 | 771 ft | 20 kts | 83° |
| 2026-04-20 17:37 | 49.15139 | 16.71203 | 772 ft | 19 kts | 168° |
| 2026-04-20 17:37 | 49.15005 | 16.71168 | 770 ft | 20 kts | 230° |
| 2026-04-20 17:37 | 49.15017 | 16.70751 | 768 ft | 77 kts | 275° |
| 2026-04-20 17:38 | 49.15116 | 16.69552 | 768 ft | 146 kts | 278° |
| 2026-04-20 17:38 | 49.15268 | 16.67925 | 1299 ft | 158 kts | 282° |
| 2026-04-20 17:38 | 49.15421 | 16.66260 | 2025 ft | 162 kts | 281° |
| 2026-04-20 17:38 | 49.15570 | 16.64559 | 2793 ft | 166 kts | 281° |
| 2026-04-20 17:39 | 49.15729 | 16.62763 | 3327 ft | 181 kts | 280° |
| 2026-04-20 17:39 | 49.15910 | 16.60732 | 3790 ft | 204 kts | 279° |
| 2026-04-20 17:39 | 49.16101 | 16.58506 | 4365 ft | 223 kts | 278° |
| 2026-04-20 17:39 | 49.16333 | 16.56119 | 5121 ft | 233 kts | 285° |
| 2026-04-20 17:40 | 49.17119 | 16.53965 | 6055 ft | 237 kts | 314° |
| 2026-04-20 17:40 | 49.18512 | 16.52692 | 6962 ft | 245 kts | 341° |
| 2026-04-20 17:40 | 49.20241 | 16.52566 | 7836 ft | 254 kts | 2° |
| 2026-04-20 17:40 | 49.21984 | 16.53064 | 8693 ft | 262 kts | 17° |
| 2026-04-20 17:41 | 49.23531 | 16.54633 | 9501 ft | 275 kts | 46° |
| 2026-04-20 17:41 | 49.24443 | 16.57188 | 10195 ft | 289 kts | 75° |
| 2026-04-20 17:41 | 49.24497 | 16.60341 | 10675 ft | 307 kts | 97° |
| 2026-04-20 17:41 | 49.24168 | 16.63713 | 11125 ft | 325 kts | 100° |
| 2026-04-20 17:42 | 49.23793 | 16.67151 | 11514 ft | 344 kts | 99° |
| 2026-04-20 17:42 | 49.23409 | 16.70911 | 11882 ft | 363 kts | 99° |
| 2026-04-20 17:42 | 49.23033 | 16.74883 | 12259 ft | 379 kts | 98° |
| 2026-04-20 17:42 | 49.22673 | 16.78902 | 12919 ft | 385 kts | 98° |
| 2026-04-20 17:43 | 49.22316 | 16.82999 | 13680 ft | 388 kts | 98° |
| 2026-04-20 17:43 | 49.21956 | 16.87123 | 14393 ft | 392 kts | 98° |
| 2026-04-20 17:43 | 49.21594 | 16.91245 | 15087 ft | 395 kts | 98° |
| 2026-04-20 17:43 | 49.21303 | 16.95475 | 15743 ft | 399 kts | 91° |
| 2026-04-20 17:44 | 49.21463 | 16.99729 | 16368 ft | 403 kts | 80° |
| 2026-04-20 17:44 | 49.22122 | 17.03928 | 17025 ft | 404 kts | 72° |
| 2026-04-20 17:44 | 49.22986 | 17.08069 | 17658 ft | 407 kts | 70° |
| 2026-04-20 17:44 | 49.23881 | 17.12186 | 18242 ft | 410 kts | 70° |
| 2026-04-20 17:45 | 49.24482 | 17.14975 | 18633 ft | 413 kts | 70° |
| 2026-04-20 17:45 | 49.25677 | 17.20625 | 19397 ft | 417 kts | 71° |
| 2026-04-20 17:45 | 49.26557 | 17.24854 | 19935 ft | 420 kts | 71° |
| 2026-04-20 17:45 | 49.27448 | 17.29176 | 20481 ft | 423 kts | 71° |
| 2026-04-20 17:46 | 49.28338 | 17.33522 | 21001 ft | 426 kts | 71° |